createdAt,value
2023-11-04T00:00:56.051Z,96257.88
2023-11-04T00:02:07.863Z,96254.47
2023-11-04T00:03:11.652Z,96257.88
2023-11-04T00:04:13.777Z,96263.88
2023-11-04T00:05:16.910Z,96260.31
2023-11-04T00:06:19.955Z,96263.88
2023-11-04T00:07:23.297Z,96266.47
2023-11-04T00:08:25.142Z,96267.47
2023-11-04T00:09:37.884Z,96269.25
2023-11-04T00:10:50.902Z,96260.03
2023-11-04T00:11:53.716Z,96278.38
2023-11-04T00:12:55.655Z,96271.56
2023-11-04T00:13:58.496Z,96274.34
2023-11-04T00:15:00.335Z,96276.94
2023-11-04T00:16:07.161Z,96277.91
2023-11-04T00:17:10.399Z,96281.47
2023-11-04T00:18:13.626Z,96285.06
2023-11-04T00:19:15.715Z,96287.03
2023-11-04T00:20:18.628Z,96287.81
2023-11-04T00:21:20.542Z,96288.81
2023-11-04T00:22:22.407Z,96294.16
2023-11-04T00:23:25.230Z,96291.56
2023-11-04T00:24:27.106Z,96289.13
2023-11-04T00:25:29.914Z,96295.13
2023-11-04T00:26:31.806Z,96289.31
2023-11-04T00:27:35.158Z,96290.31
2023-11-04T00:28:37.259Z,96286.25
2023-11-04T00:29:40.124Z,96298.59
2023-11-04T00:30:42.131Z,96292.59
2023-11-04T00:31:44.964Z,96290.97
2023-11-04T00:32:49.068Z,96300.72
2023-11-04T00:33:51.918Z,96299.09
2023-11-04T00:34:53.820Z,96291.63
2023-11-04T00:35:55.881Z,96297.19
2023-11-04T00:36:58.788Z,96300.91
2023-11-04T00:38:00.619Z,96294.28
2023-11-04T00:39:03.672Z,96293.81
2023-11-04T00:40:07.562Z,96302.41
2023-11-04T00:41:11.151Z,96306.78
2023-11-04T00:42:13.086Z,96312.16
2023-11-04T00:43:15.874Z,96307.78
2023-11-04T00:44:17.743Z,96306.78
2023-11-04T00:45:20.694Z,96310.84
2023-11-04T00:46:22.728Z,96317.66
2023-11-04T00:47:24.856Z,96313.09
2023-11-04T00:48:29.073Z,96316.34
2023-11-04T00:49:31.002Z,96323.59
2023-11-04T00:50:33.857Z,96313.06
2023-11-04T00:51:37.488Z,96312.72
2023-11-04T00:52:40.652Z,96321.16
2023-11-04T00:53:42.514Z,96324.56
2023-11-04T00:54:45.399Z,96307.19
2023-11-04T00:55:47.958Z,96317.22
2023-11-04T00:56:51.029Z,96308.63
2023-11-04T00:57:52.946Z,96312.88
2023-11-04T00:58:55.767Z,96313.69
2023-11-04T00:59:57.654Z,96305.88
2023-11-04T01:01:00.498Z,96303.09
2023-11-04T01:02:02.784Z,96311.88
2023-11-04T01:03:05.611Z,96302.31
2023-11-04T01:04:08.916Z,96307.50
2023-11-04T01:05:12.342Z,96298.91
2023-11-04T01:06:15.207Z,96298.91
2023-11-04T01:07:17.183Z,96300.69
2023-11-04T01:08:20.016Z,96307.69
2023-11-04T01:09:22.534Z,96306.84
2023-11-04T01:10:25.460Z,96301.50
2023-11-04T01:11:27.417Z,96305.88
2023-11-04T01:12:30.326Z,96307.81
2023-11-04T01:13:32.251Z,96301.81
2023-11-04T01:14:36.487Z,96302.00
2023-11-04T01:15:38.474Z,96306.53
2023-11-04T01:16:41.462Z,96307.53
2023-11-04T01:17:43.408Z,96308.50
2023-11-04T01:18:46.713Z,96304.47
2023-11-04T01:19:50.046Z,96312.25
2023-11-04T01:20:52.912Z,96316.66
2023-11-04T01:21:54.761Z,96311.47
2023-11-04T01:22:57.675Z,96329.63
2023-11-04T01:23:59.490Z,96327.84
2023-11-04T01:25:02.286Z,96326.06
2023-11-04T01:26:04.794Z,96324.88
2023-11-04T01:27:10.206Z,96326.69
2023-11-04T01:28:12.171Z,96332.69
2023-11-04T01:29:15.046Z,96330.09
2023-11-04T01:30:17.078Z,96328.28
2023-11-04T01:31:19.994Z,96334.28
2023-11-04T01:32:21.835Z,96336.75
2023-11-04T01:33:27.044Z,96338.34
2023-11-04T01:34:29.106Z,96328.78
2023-11-04T01:35:33.491Z,96336.56
2023-11-04T01:36:35.740Z,96333.16
2023-11-04T01:37:38.526Z,96331.38
2023-11-04T01:38:40.418Z,96330.56
2023-11-04T01:39:43.241Z,96339.34
2023-11-04T01:40:49.090Z,96334.28
2023-11-04T01:41:51.945Z,96325.06
2023-11-04T01:42:54.211Z,96337.41
2023-11-04T01:43:57.055Z,96331.75
2023-11-04T01:44:58.888Z,96338.06
2023-11-04T01:46:19.444Z,96333.22
2023-11-04T01:47:21.353Z,96334.84
2023-11-04T01:48:24.274Z,96336.81
2023-11-04T01:49:26.794Z,96331.16
2023-11-04T01:50:29.600Z,96333.28
2023-11-04T01:51:33.069Z,96348.19
2023-11-04T01:52:38.755Z,96340.59
2023-11-04T01:53:41.821Z,96344.97
2023-11-04T01:54:44.807Z,96341.56
2023-11-04T01:55:46.878Z,96344.97
2023-11-04T01:56:50.195Z,96334.59
2023-11-04T01:57:52.330Z,96341.38
2023-11-04T01:58:56.391Z,96338.16
2023-11-04T01:59:58.610Z,96339.91
2023-11-04T02:01:02.032Z,96338.31
2023-11-04T02:02:04.842Z,96343.84
2023-11-04T02:03:07.740Z,96345.94
2023-11-04T02:04:09.739Z,96342.88
2023-11-04T02:05:13.108Z,96340.63
2023-11-04T02:06:15.840Z,96342.72
2023-11-04T02:07:20.028Z,96342.09
2023-11-04T02:08:21.936Z,96349.22
2023-11-04T02:09:24.769Z,96355.56
2023-11-04T02:10:26.810Z,96358.28
2023-11-04T02:11:31.714Z,96347.28
2023-11-04T02:12:33.696Z,96351.84
2023-11-04T02:13:36.617Z,96351.34
2023-11-04T02:14:39.692Z,96353.31
2023-11-04T02:15:42.622Z,96361.41
2023-11-04T02:16:44.519Z,96364.16
2023-11-04T02:17:47.386Z,96365.94
2023-11-04T02:18:49.327Z,96366.75
2023-11-04T02:19:53.196Z,96364.81
2023-11-04T02:20:58.679Z,96367.41
2023-11-04T02:22:01.491Z,96376.78
2023-11-04T02:23:03.656Z,96370.97
2023-11-04T02:24:07.191Z,96367.72
2023-11-04T02:25:09.139Z,96375.50
2023-11-04T02:26:12.039Z,96380.66
2023-11-04T02:27:13.941Z,96377.44
2023-11-04T02:28:17.106Z,96379.22
2023-11-04T02:29:19.016Z,96378.41
2023-11-04T02:30:22.148Z,96381.00
2023-11-04T02:31:24.257Z,96383.78
2023-11-04T02:32:27.149Z,96380.38
2023-11-04T02:33:29.017Z,96384.72
2023-11-04T02:34:32.009Z,96382.97
2023-11-04T02:35:33.944Z,96390.75
2023-11-04T02:36:38.142Z,96387.31
2023-11-04T02:37:39.958Z,96397.38
2023-11-04T02:38:42.806Z,96388.63
2023-11-04T02:39:45.431Z,96391.72
2023-11-04T02:40:48.515Z,96402.41
2023-11-04T02:42:19.471Z,96395.94
2023-11-04T02:43:22.439Z,96407.44
2023-11-04T02:44:24.373Z,96402.56
2023-11-04T02:45:27.275Z,96408.88
2023-11-04T02:46:29.160Z,96407.41
2023-11-04T02:47:32.194Z,96407.75
2023-11-04T02:48:34.417Z,96410.81
2023-11-04T02:49:37.406Z,96414.69
2023-11-04T02:50:39.285Z,96421.97
2023-11-04T02:51:43.466Z,96411.91
2023-11-04T02:52:45.358Z,96408.03
2023-11-04T02:53:48.243Z,96402.34
2023-11-04T02:54:50.425Z,96406.38
2023-11-04T02:55:53.280Z,96410.25
2023-11-04T02:56:55.143Z,96403.13
2023-11-04T02:57:58.164Z,96410.56
2023-11-04T02:59:00.170Z,96407.66
2023-11-04T03:00:02.123Z,96409.91
2023-11-04T03:01:05.443Z,96415.59
2023-11-04T03:02:07.324Z,96417.19
2023-11-04T03:03:10.890Z,96417.84
2023-11-04T03:04:14.143Z,96421.91
2023-11-04T03:05:27.485Z,96423.38
2023-11-04T03:06:34.582Z,96431.78
2023-11-04T03:07:38.856Z,96427.41
2023-11-04T03:08:40.801Z,96421.06
2023-11-04T03:09:43.860Z,96426.09
2023-11-04T03:10:45.821Z,96431.13
2023-11-04T03:11:48.899Z,96433.38
2023-11-04T03:12:50.962Z,96428.19
2023-11-04T03:13:54.422Z,96431.41
2023-11-04T03:14:56.754Z,96432.06
2023-11-04T03:15:59.697Z,96437.09
2023-11-04T03:17:01.642Z,96436.91
2023-11-04T03:18:04.632Z,96438.53
2023-11-04T03:19:06.674Z,96440.81
2023-11-04T03:20:10.924Z,96441.63
2023-11-04T03:21:13.141Z,96438.84
2023-11-04T03:22:16.101Z,96444.84
2023-11-04T03:23:19.492Z,96440.50
2023-11-04T03:24:21.561Z,96446.31
2023-11-04T03:25:24.433Z,96444.34
2023-11-04T03:26:26.338Z,96443.53
2023-11-04T03:27:29.423Z,96443.38
2023-11-04T03:28:31.372Z,96441.41
2023-11-04T03:29:33.412Z,96453.44
2023-11-04T03:30:37.018Z,96441.25
2023-11-04T03:31:39.098Z,96452.44
2023-11-04T03:32:42.457Z,96442.84
2023-11-04T03:33:45.191Z,96443.69
2023-11-04T03:34:48.205Z,96447.91
2023-11-04T03:35:50.629Z,96440.91
2023-11-04T03:36:52.621Z,96446.91
2023-11-04T03:37:55.647Z,96446.75
2023-11-04T03:38:59.740Z,96450.16
2023-11-04T03:40:01.641Z,96448.53
2023-11-04T03:41:04.980Z,96457.94
2023-11-04T03:42:08.404Z,96457.00
2023-11-04T03:43:11.298Z,96454.22
2023-11-04T03:44:13.382Z,96457.63
2023-11-04T03:45:15.821Z,96465.25
2023-11-04T03:46:20.167Z,96470.28
2023-11-04T03:47:22.221Z,96475.50
2023-11-04T03:48:25.405Z,96471.91
2023-11-04T03:49:27.528Z,96474.50
2023-11-04T03:50:30.387Z,96465.72
2023-11-04T03:51:32.249Z,96469.75
2023-11-04T03:52:35.093Z,96471.56
2023-11-04T03:53:37.931Z,96485.34
2023-11-04T03:54:42.325Z,96472.22
2023-11-04T03:55:44.308Z,96479.19
2023-11-04T03:56:46.159Z,96475.63
2023-11-04T03:57:49.157Z,96475.44
2023-11-04T03:58:51.288Z,96468.44
2023-11-04T03:59:54.111Z,96481.44
2023-11-04T04:00:56.096Z,96470.06
2023-11-04T04:01:58.927Z,96478.66
2023-11-04T04:03:01.575Z,96481.28
2023-11-04T04:04:03.583Z,96480.31
2023-11-04T04:05:07.053Z,96482.09
2023-11-04T04:06:09.307Z,96482.91
2023-11-04T04:07:12.358Z,96481.94
2023-11-04T04:08:14.396Z,96491.50
2023-11-04T04:09:17.220Z,96489.72
2023-11-04T04:10:20.444Z,96490.53
2023-11-04T04:11:24.168Z,96492.31
2023-11-04T04:12:26.270Z,96493.13
2023-11-04T04:13:29.104Z,96493.94
2023-11-04T04:14:30.971Z,96493.13
2023-11-04T04:15:33.808Z,96499.13
2023-11-04T04:16:36.522Z,96498.16
2023-11-04T04:17:38.539Z,96494.56
2023-11-04T04:18:41.621Z,96496.38
2023-11-04T04:19:43.729Z,96488.56
2023-11-04T04:20:46.085Z,96493.63
2023-11-04T04:21:49.131Z,96491.81
2023-11-04T04:22:51.136Z,96490.03
2023-11-04T04:23:54.207Z,96492.63
2023-11-04T04:24:56.197Z,96490.03
2023-11-04T04:26:00.780Z,96491.97
2023-11-04T04:27:02.656Z,96491.00
2023-11-04T04:28:05.882Z,96493.75
2023-11-04T04:29:08.877Z,96491.34
2023-11-04T04:30:12.201Z,96487.13
2023-11-04T04:31:15.392Z,96486.31
2023-11-04T04:32:18.254Z,96489.91
2023-11-04T04:33:20.442Z,96488.25
2023-11-04T04:34:23.814Z,96488.44
2023-11-04T04:35:25.633Z,96486.81
2023-11-04T04:36:28.537Z,96483.59
2023-11-04T04:37:30.483Z,96482.94
2023-11-04T04:38:32.310Z,96488.50
2023-11-04T04:39:35.343Z,96487.19
2023-11-04T04:40:38.947Z,96486.91
2023-11-04T04:41:43.284Z,96491.59
2023-11-04T04:42:45.166Z,96499.72
2023-11-04T04:43:48.055Z,96504.47
2023-11-04T04:44:49.972Z,96504.47
2023-11-04T04:45:51.843Z,96504.47
2023-11-04T04:46:56.869Z,96513.06
2023-11-04T04:47:59.182Z,96505.44
2023-11-04T04:49:02.047Z,96511.44
2023-11-04T04:50:05.752Z,96505.28
2023-11-04T04:51:08.615Z,96513.88
2023-11-04T04:52:11.417Z,96511.28
2023-11-04T04:53:16.107Z,96516.47
2023-11-04T04:54:18.923Z,96514.69
2023-11-04T04:55:21.653Z,96509.47
2023-11-04T04:56:25.177Z,96515.66
2023-11-04T04:57:28.393Z,96520.06
2023-11-04T04:58:31.242Z,96523.63
2023-11-04T04:59:33.640Z,96527.19
2023-11-04T05:00:36.467Z,96528.16
2023-11-04T05:01:38.993Z,96529.16
2023-11-04T05:02:41.889Z,96530.28
2023-11-04T05:03:43.953Z,96531.13
2023-11-04T05:04:47.042Z,96534.66
2023-11-04T05:05:48.949Z,96535.81
2023-11-04T05:06:51.906Z,96535.34
2023-11-04T05:07:53.795Z,96539.91
2023-11-04T05:08:56.903Z,96535.81
2023-11-04T05:09:58.854Z,96535.50
2023-11-04T05:11:01.827Z,96537.78
2023-11-04T05:12:04.043Z,96530.50
2023-11-04T05:13:08.197Z,96531.81
2023-11-04T05:14:10.089Z,96534.72
2023-11-04T05:15:13.573Z,96535.22
2023-11-04T05:16:15.465Z,96536.50
2023-11-04T05:17:18.283Z,96531.97
2023-11-04T05:18:20.180Z,96525.47
2023-11-04T05:19:23.167Z,96531.19
2023-11-04T05:20:25.051Z,96538.47
2023-11-04T05:21:27.972Z,96531.00
2023-11-04T05:22:29.782Z,96536.66
2023-11-04T05:23:33.735Z,96542.19
2023-11-04T05:24:35.855Z,96543.31
2023-11-04T05:25:38.807Z,96543.66
2023-11-04T05:26:40.978Z,96538.94
2023-11-04T05:27:42.886Z,96540.88
2023-11-04T05:28:47.100Z,96543.31
2023-11-04T05:29:48.938Z,96537.78
2023-11-04T05:30:51.801Z,96546.03
2023-11-04T05:31:53.642Z,96544.72
2023-11-04T05:32:57.564Z,96553.03
2023-11-04T05:34:00.606Z,96551.84
2023-11-04T05:35:03.174Z,96552.19
2023-11-04T05:36:07.037Z,96551.66
2023-11-04T05:37:08.929Z,96551.19
2023-11-04T05:38:12.143Z,96552.47
2023-11-04T05:39:13.972Z,96549.38
2023-11-04T05:40:17.084Z,96559.91
2023-11-04T05:41:19.244Z,96558.28
2023-11-04T05:42:24.599Z,96559.22
2023-11-04T05:43:26.896Z,96563.78
2023-11-04T05:44:31.051Z,96567.34
2023-11-04T05:45:32.961Z,96571.56
2023-11-04T05:46:36.450Z,96568.16
2023-11-04T05:47:38.337Z,96567.34
2023-11-04T05:48:41.233Z,96566.38
2023-11-04T05:49:43.148Z,96567.34
2023-11-04T05:50:45.259Z,96569.94
2023-11-04T05:51:48.117Z,96577.56
2023-11-04T05:52:51.064Z,96572.38
2023-11-04T05:53:54.075Z,96583.72
2023-11-04T05:54:55.935Z,96576.75
2023-11-04T05:55:58.863Z,96573.34
2023-11-04T05:57:00.670Z,96575.94
2023-11-04T05:58:03.467Z,96573.34
2023-11-04T05:59:05.529Z,96572.84
2023-11-04T06:00:12.703Z,96576.41
2023-11-04T06:01:14.809Z,96576.56
2023-11-04T06:02:17.664Z,96586.75
2023-11-04T06:03:19.502Z,96582.56
2023-11-04T06:04:22.426Z,96584.19
2023-11-04T06:05:24.968Z,96579.81
2023-11-04T06:06:27.896Z,96588.22
2023-11-04T06:07:30.353Z,96581.94
2023-11-04T06:08:36.950Z,96581.47
2023-11-04T06:09:39.817Z,96579.38
2023-11-04T06:10:41.676Z,96582.31
2023-11-04T06:11:44.826Z,96583.28
2023-11-04T06:12:46.682Z,96589.63
2023-11-04T06:13:49.500Z,96588.66
2023-11-04T06:14:51.327Z,96589.47
2023-11-04T06:15:55.517Z,96586.06
2023-11-04T06:16:57.510Z,96589.47
2023-11-04T06:18:00.714Z,96587.84
2023-11-04T06:19:02.757Z,96585.25
2023-11-04T06:20:07.260Z,96589.63
2023-11-04T06:21:09.157Z,96580.06
2023-11-04T06:22:12.548Z,96582.66
2023-11-04T06:23:14.381Z,96577.63
2023-11-04T06:24:17.397Z,96574.25
2023-11-04T06:25:19.737Z,96582.97
2023-11-04T06:26:23.247Z,96576.16
2023-11-04T06:27:25.218Z,96579.72
2023-11-04T06:28:29.378Z,96584.91
2023-11-04T06:29:31.242Z,96582.31
2023-11-04T06:30:34.864Z,96577.13
2023-11-04T06:31:38.045Z,96587.34
2023-11-04T06:32:41.090Z,96591.06
2023-11-04T06:33:42.980Z,96593.66
2023-11-04T06:34:45.850Z,96595.13
2023-11-04T06:35:47.666Z,96596.25
2023-11-04T06:36:52.423Z,96587.50
2023-11-04T06:37:54.270Z,96592.06
2023-11-04T06:38:56.068Z,96596.25
2023-11-04T06:39:59.061Z,96598.22
2023-11-04T06:41:01.294Z,96597.53
2023-11-04T06:42:04.188Z,96596.91
2023-11-04T06:43:06.152Z,96601.28
2023-11-04T06:44:09.032Z,96602.09
2023-11-04T06:45:11.258Z,96597.03
2023-11-04T06:46:14.184Z,96600.47
2023-11-04T06:47:17.621Z,96598.69
2023-11-04T06:48:20.548Z,96601.28
2023-11-04T06:49:23.455Z,96602.91
2023-11-04T06:50:26.274Z,96597.69
2023-11-04T06:51:28.202Z,96592.53
2023-11-04T06:52:31.255Z,96591.72
2023-11-04T06:53:33.184Z,96591.72
2023-11-04T06:54:34.996Z,96589.94
2023-11-04T06:55:37.881Z,96593.84
2023-11-04T06:56:39.711Z,96588.31
2023-11-04T06:57:42.527Z,96594.19
2023-11-04T06:58:44.441Z,96593.84
2023-11-04T06:59:47.263Z,96592.88
2023-11-04T07:00:49.892Z,96589.97
2023-11-04T07:01:51.865Z,96599.06
2023-11-04T07:02:56.105Z,96593.78
2023-11-04T07:03:58.147Z,96593.47
2023-11-04T07:05:01.176Z,96591.03
2023-11-04T07:06:03.271Z,96595.09
2023-11-04T07:07:06.316Z,96592.50
2023-11-04T07:08:08.222Z,96589.91
2023-11-04T07:09:11.702Z,96588.94
2023-11-04T07:10:13.597Z,96594.78
2023-11-04T07:11:17.723Z,96590.25
2023-11-04T07:12:19.718Z,96592.34
2023-11-04T07:13:23.024Z,96594.47
2023-11-04T07:14:25.437Z,96587.94
2023-11-04T07:15:28.298Z,96587.81
2023-11-04T07:16:30.369Z,96588.44
2023-11-04T07:17:33.276Z,96586.66
2023-11-04T07:18:37.107Z,96583.06
2023-11-04T07:19:40.196Z,96592.84
2023-11-04T07:20:42.347Z,96589.44
2023-11-04T07:21:46.896Z,96591.22
2023-11-04T07:22:48.786Z,96590.56
2023-11-04T07:23:51.608Z,96600.13
2023-11-04T07:24:53.551Z,96596.09
2023-11-04T07:25:56.454Z,96603.22
2023-11-04T07:26:58.332Z,96593.81
2023-11-04T07:28:01.174Z,96600.78
2023-11-04T07:29:03.178Z,96597.38
2023-11-04T07:30:05.497Z,96598.34
2023-11-04T07:31:08.371Z,96601.75
2023-11-04T07:32:11.406Z,96600.94
2023-11-04T07:33:20.667Z,96602.75
2023-11-04T07:34:23.982Z,96603.56
2023-11-04T07:35:26.851Z,96604.34
2023-11-04T07:36:28.759Z,96605.16
2023-11-04T07:37:31.675Z,96604.19
2023-11-04T07:38:34.058Z,96605.81
2023-11-04T07:39:40.238Z,96601.09
2023-11-04T07:40:43.619Z,96610.38
2023-11-04T07:41:46.396Z,96609.06
2023-11-04T07:42:48.319Z,96611.34
2023-11-04T07:44:03.457Z,96608.09
2023-11-04T07:45:06.468Z,96606.59
2023-11-04T07:46:09.428Z,96606.94
2023-11-04T07:47:11.250Z,96612.78
2023-11-04T07:48:14.317Z,96611.81
2023-11-04T07:49:16.240Z,96609.03
2023-11-04T07:50:20.623Z,96600.25
2023-11-04T07:51:23.664Z,96604.50
2023-11-04T07:52:26.602Z,96600.94
2023-11-04T07:53:28.698Z,96605.94
2023-11-04T07:54:31.484Z,96598.16
2023-11-04T07:55:33.386Z,96606.75
2023-11-04T07:56:36.179Z,96609.03
2023-11-04T07:57:38.422Z,96602.69
2023-11-04T07:58:40.364Z,96603.97
2023-11-04T07:59:43.194Z,96604.47
2023-11-04T08:00:45.094Z,96595.03
2023-11-04T08:01:47.996Z,96601.53
2023-11-04T08:02:50.304Z,96601.16
2023-11-04T08:03:53.217Z,96598.41
2023-11-04T08:04:55.139Z,96601.16
2023-11-04T08:05:59.977Z,96595.34
2023-11-04T08:07:01.854Z,96597.13
2023-11-04T08:08:07.636Z,96601.69
2023-11-04T08:09:10.019Z,96602.81
2023-11-04T08:10:22.012Z,96607.22
2023-11-04T08:11:23.900Z,96607.03
2023-11-04T08:12:27.051Z,96601.84
2023-11-04T08:13:28.889Z,96602.50
2023-11-04T08:14:31.712Z,96599.56
2023-11-04T08:15:33.543Z,96604.25
2023-11-04T08:16:36.345Z,96606.22
2023-11-04T08:17:38.366Z,96596.13
2023-11-04T08:18:42.053Z,96601.63
2023-11-04T08:19:44.017Z,96612.50
2023-11-04T08:20:49.581Z,96608.59
2023-11-04T08:21:52.999Z,96599.66
2023-11-04T08:22:57.501Z,96611.50
2023-11-04T08:23:59.807Z,96604.34
2023-11-04T08:25:02.693Z,96604.81
2023-11-04T08:26:05.092Z,96608.06
2023-11-04T08:27:07.900Z,96607.72
2023-11-04T08:28:10.131Z,96604.78
2023-11-04T08:29:13.001Z,96609.81
2023-11-04T08:30:15.514Z,96610.47
2023-11-04T08:31:18.692Z,96605.25
2023-11-04T08:32:20.600Z,96598.25
2023-11-04T08:33:23.998Z,96609.16
2023-11-04T08:34:26.241Z,96614.03
2023-11-04T08:35:29.224Z,96611.06
2023-11-04T08:36:31.385Z,96609.75
2023-11-04T08:37:36.379Z,96610.03
2023-11-04T08:38:38.276Z,96613.75
2023-11-04T08:39:41.100Z,96606.25
2023-11-04T08:40:43.135Z,96608.34
2023-11-04T08:41:46.463Z,96603.75
2023-11-04T08:42:48.336Z,96601.81
2023-11-04T08:43:52.559Z,96600.47
2023-11-04T08:44:54.778Z,96597.34
2023-11-04T08:45:57.682Z,96591.63
2023-11-04T08:46:59.507Z,96595.16
2023-11-04T08:48:02.430Z,96599.50
2023-11-04T08:49:05.324Z,96590.16
2023-11-04T08:50:08.918Z,96592.06
2023-11-04T08:51:10.794Z,96590.91
2023-11-04T08:52:13.759Z,96590.56
2023-11-04T08:53:16.969Z,96592.19
2023-11-04T08:54:33.151Z,96596.22
2023-11-04T08:55:35.079Z,96598.50
2023-11-04T08:56:37.998Z,96600.75
2023-11-04T08:57:39.847Z,96603.53
2023-11-04T08:58:44.053Z,96606.13
2023-11-04T08:59:47.560Z,96613.34
2023-11-04T09:00:51.947Z,96608.63
2023-11-04T09:01:53.978Z,96615.00
2023-11-04T09:02:57.048Z,96616.31
2023-11-04T09:04:03.663Z,96614.88
2023-11-04T09:05:13.211Z,96621.09
2023-11-04T09:06:17.261Z,96623.69
2023-11-04T09:07:20.162Z,96618.50
2023-11-04T09:08:23.681Z,96617.31
2023-11-04T09:09:26.770Z,96611.94
2023-11-04T09:10:28.746Z,96614.84
2023-11-04T09:11:31.588Z,96610.25
2023-11-04T09:12:33.969Z,96606.13
2023-11-04T09:13:38.262Z,96603.00
2023-11-04T09:14:40.179Z,96602.63
2023-11-04T09:15:43.038Z,96603.91
2023-11-04T09:16:45.766Z,96599.97
2023-11-04T09:17:48.787Z,96603.03
2023-11-04T09:18:50.939Z,96612.13
2023-11-04T09:19:53.849Z,96613.22
2023-11-04T09:20:55.931Z,96613.50
2023-11-04T09:21:58.782Z,96603.50
2023-11-04T09:23:00.790Z,96605.13
2023-11-04T09:24:05.634Z,96600.75
2023-11-04T09:25:10.688Z,96598.75
2023-11-04T09:26:13.625Z,96595.81
2023-11-04T09:27:15.594Z,96597.03
2023-11-04T09:28:18.427Z,96593.09
2023-11-04T09:29:20.306Z,96595.19
2023-11-04T09:30:23.777Z,96580.63
2023-11-04T09:31:25.820Z,96577.66
2023-11-04T09:32:29.217Z,96583.31
2023-11-04T09:33:32.875Z,96584.44
2023-11-04T09:34:36.120Z,96583.69
2023-11-04T09:35:38.130Z,96573.53
2023-11-04T09:36:41.869Z,96581.63
2023-11-04T09:37:44.389Z,96580.06
2023-11-04T09:38:48.130Z,96578.72
2023-11-04T09:39:52.485Z,96582.41
2023-11-04T09:40:56.148Z,96576.44
2023-11-04T09:41:58.111Z,96586.34
2023-11-04T09:43:01.326Z,96574.34
2023-11-04T09:44:04.376Z,96579.84
2023-11-04T09:45:09.010Z,96569.66
2023-11-04T09:46:11.773Z,96570.25
2023-11-04T09:47:15.495Z,96561.63
2023-11-04T09:48:18.475Z,96572.25
2023-11-04T09:49:21.450Z,96565.22
2023-11-04T09:50:23.381Z,96569.66
2023-11-04T09:51:25.825Z,96566.84
2023-11-04T09:52:29.445Z,96566.28
2023-11-04T09:53:34.469Z,96568.34
2023-11-04T09:54:40.016Z,96561.75
2023-11-04T09:55:43.526Z,96564.19
2023-11-04T09:56:46.419Z,96565.81
2023-11-04T09:57:48.471Z,96560.56
2023-11-04T09:58:50.769Z,96567.41
2023-11-04T10:00:06.258Z,96564.63
2023-11-04T10:01:14.298Z,96560.81
2023-11-04T10:02:17.105Z,96568.31
2023-11-04T10:03:19.116Z,96567.75
2023-11-04T10:04:22.357Z,96565.13
2023-11-04T10:05:24.357Z,96563.31
2023-11-04T10:06:27.304Z,96563.31
2023-11-04T10:07:29.374Z,96559.06
2023-11-04T10:08:31.387Z,96561.69
2023-11-04T10:09:34.323Z,96557.09
2023-11-04T10:10:36.269Z,96556.72
2023-11-04T10:11:40.524Z,96557.34
2023-11-04T10:12:43.424Z,96557.97
2023-11-04T10:13:46.312Z,96556.41
2023-11-04T10:14:48.207Z,96556.63
2023-11-04T10:15:51.030Z,96560.31
2023-11-04T10:16:52.912Z,96557.94
2023-11-04T10:17:57.433Z,96557.56
2023-11-04T10:18:59.392Z,96553.34
2023-11-04T10:20:02.416Z,96555.31
2023-11-04T10:21:04.943Z,96555.47
2023-11-04T10:22:07.817Z,96551.56
2023-11-04T10:23:10.319Z,96551.88
2023-11-04T10:24:12.579Z,96555.25
2023-11-04T10:25:15.558Z,96544.28
2023-11-04T10:26:17.892Z,96546.81
2023-11-04T10:27:22.033Z,96542.78
2023-11-04T10:28:24.803Z,96540.78
2023-11-04T10:29:27.669Z,96537.81
2023-11-04T10:30:29.584Z,96541.28
2023-11-04T10:31:33.328Z,96536.75
2023-11-04T10:32:37.806Z,96537.19
2023-11-04T10:33:42.366Z,96538.41
2023-11-04T10:34:47.059Z,96539.88
2023-11-04T10:35:51.001Z,96539.66
2023-11-04T10:36:56.017Z,96537.28
2023-11-04T10:38:18.456Z,96542.59
2023-11-04T10:39:23.366Z,96542.81
2023-11-04T10:40:25.523Z,96543.66
2023-11-04T10:41:32.347Z,96545.63
2023-11-04T10:42:40.313Z,96536.94
2023-11-04T10:43:49.134Z,96541.47
2023-11-04T10:44:53.396Z,96540.22
2023-11-04T10:46:00.634Z,96533.84
2023-11-04T10:47:07.853Z,96537.28
2023-11-04T10:48:15.864Z,96534.38
2023-11-04T10:49:22.031Z,96528.00
2023-11-04T10:50:27.711Z,96529.50
2023-11-04T10:51:34.547Z,96522.50
2023-11-04T10:52:40.171Z,96524.81
2023-11-04T10:53:49.987Z,96529.06
2023-11-04T10:55:02.017Z,96519.47
2023-11-04T10:56:08.271Z,96520.72
2023-11-04T10:57:15.509Z,96517.88
2023-11-04T10:58:21.633Z,96529.75
2023-11-04T10:59:28.943Z,96519.94
2023-11-04T11:00:33.149Z,96512.69
2023-11-04T11:01:36.879Z,96509.06
2023-11-04T11:02:39.984Z,96506.28
2023-11-04T11:03:43.784Z,96501.63
2023-11-04T11:04:47.193Z,96495.41
2023-11-04T11:05:51.565Z,96505.50
2023-11-04T11:06:53.898Z,96504.91
2023-11-04T11:07:56.945Z,96504.31
2023-11-04T11:09:01.300Z,96499.50
2023-11-04T11:10:06.288Z,96505.53
2023-11-04T11:11:11.880Z,96507.16
2023-11-04T11:12:18.031Z,96498.69
2023-11-04T11:13:23.138Z,96504.34
2023-11-04T11:14:26.132Z,96497.09
2023-11-04T11:15:29.096Z,96497.72
2023-11-04T11:16:32.506Z,96496.50
2023-11-04T11:17:34.394Z,96499.94
2023-11-04T11:18:37.507Z,96490.09
2023-11-04T11:19:52.666Z,96488.47
2023-11-04T11:20:55.910Z,96486.25
2023-11-04T11:21:57.827Z,96483.84
2023-11-04T11:23:04.328Z,96485.03
2023-11-04T11:24:09.970Z,96479.78
2023-11-04T11:25:12.836Z,96485.03
2023-11-04T11:26:15.890Z,96483.84
2023-11-04T11:27:18.711Z,96484.81
2023-11-04T11:28:24.330Z,96484.66
2023-11-04T11:29:33.960Z,96485.44
2023-11-04T11:30:38.302Z,96482.03
2023-11-04T11:31:41.148Z,96486.47
2023-11-04T11:32:43.262Z,96491.06
2023-11-04T11:33:45.362Z,96488.03
2023-11-04T11:34:51.954Z,96487.41
2023-11-04T11:35:56.068Z,96487.00
2023-11-04T11:37:01.695Z,96486.53
2023-11-04T11:38:06.620Z,96490.50
2023-11-04T11:39:09.989Z,96482.22
2023-11-04T11:40:14.371Z,96490.63
2023-11-04T11:41:18.551Z,96484.81
2023-11-04T11:42:26.433Z,96479.00
2023-11-04T11:43:31.065Z,96474.78
2023-11-04T11:44:32.988Z,96476.63
2023-11-04T11:45:36.510Z,96477.06
2023-11-04T11:46:38.526Z,96478.88
2023-11-04T11:47:41.454Z,96469.78
2023-11-04T11:48:46.242Z,96476.41
2023-11-04T11:49:49.861Z,96476.59
2023-11-04T11:50:52.088Z,96469.88
2023-11-04T11:51:54.928Z,96475.44
2023-11-04T11:52:58.065Z,96473.78
2023-11-04T11:54:13.917Z,96475.34
2023-11-04T11:55:15.901Z,96468.50
2023-11-04T11:56:19.203Z,96472.34
2023-11-04T11:57:22.112Z,96466.78
2023-11-04T11:58:32.685Z,96457.03
2023-11-04T11:59:35.141Z,96464.13
2023-11-04T12:00:38.915Z,96461.38
2023-11-04T12:01:40.876Z,96462.06
2023-11-04T12:02:43.696Z,96453.25
2023-11-04T12:03:45.967Z,96469.00
2023-11-04T12:04:48.870Z,96464.78
2023-11-04T12:05:50.805Z,96455.16
2023-11-04T12:06:54.438Z,96461.41
2023-11-04T12:07:56.517Z,96461.41
2023-11-04T12:08:59.722Z,96465.84
2023-11-04T12:10:01.598Z,96463.06
2023-11-04T12:11:04.704Z,96463.25
2023-11-04T12:12:17.251Z,96465.09
2023-11-04T12:13:20.753Z,96469.53
2023-11-04T12:14:25.248Z,96466.47
2023-11-04T12:15:28.339Z,96457.84
2023-11-04T12:16:30.187Z,96459.03
2023-11-04T12:17:33.160Z,96450.53
2023-11-04T12:18:35.244Z,96451.38
2023-11-04T12:19:38.519Z,96447.13
2023-11-04T12:20:42.545Z,96444.47
2023-11-04T12:21:45.427Z,96441.47
2023-11-04T12:22:47.370Z,96434.41
2023-11-04T12:23:51.384Z,96439.03